MSC Flavia — 3FBD7 — position and weather

sailwx.info

Track history (hours):
 
Tides and Currents Weather Stations Pressure Air Temp Water Temp Dewpoint Dewpoint Depression Visibility Wind Speed Wind Dir Waves Ship Positions

MSC Flavia

Last reported at 2015-Jul-31 08:32 UTC. Time now 2015-Jul-31 09:24 UTC.
Position N 51°58' E 001°17'.

Length 366 m; draft 12.1 m.

Type: Ship (hazmat cat A). MMSI: 373004000.

Date/timePositionNaut miles runAvg speedWind from/ knotsBaromVisibWave heightAir tempDewpointWater temp
2015-Jul-31 08:32N 51°58' E 001°17'0 0.0
2015-Jul-31 07:32N 51°58' E 001°17'0 0.0
2015-Jul-31 06:32N 51°58' E 001°17'0 0.0
2015-Jul-31 05:32N 51°58' E 001°17'0 0.0
2015-Jul-31 04:32N 51°58' E 001°17'0 0.0
2015-Jul-31 03:32N 51°58' E 001°17'0 0.0
2015-Jul-31 02:32N 51°58' E 001°17'0 0.0
2015-Jul-31 01:32N 51°58' E 001°17'0 0.0
2015-Jul-31 00:32N 51°58' E 001°17'0 0.0
2015-Jul-30 23:32N 51°58' E 001°17'0 0.0
2015-Jul-30 22:32N 51°58' E 001°17'0 0.0
2015-Jul-30 21:32N 51°58' E 001°17'0 0.0
2015-Jul-30 20:32N 51°58' E 001°17'0 0.0
2015-Jul-30 19:32N 51°58' E 001°17'0 0.0
2015-Jul-30 18:32N 51°58' E 001°17'0 0.0
2015-Jul-30 17:32N 51°58' E 001°17'0 0.0
2015-Jul-30 16:32N 51°58' E 001°17'0 0.0
2015-Jul-30 15:32N 51°58' E 001°17'0 0.0
2015-Jul-30 14:32N 51°58' E 001°17'0 0.0
2015-Jul-30 13:32N 51°58' E 001°17'0 0.0
2015-Jul-30 12:32N 51°58' E 001°17'0 0.0
2015-Jul-30 11:32N 51°58' E 001°17'0 0.0
2015-Jul-30 10:32N 51°58' E 001°17'0 0.0
2015-Jul-30 09:32N 51°58' E 001°17'0 0.0
2015-Jul-30 08:32N 51°58' E 001°17'0 0.0
2015-Jul-30 07:32N 51°58' E 001°17'0 0.0
2015-Jul-30 06:32N 51°58' E 001°17'0 0.0
2015-Jul-30 05:32N 51°58' E 001°17'0 0.0
2015-Jul-30 04:32N 51°58' E 001°17'0 0.0
2015-Jul-30 03:32N 51°58' E 001°17'1 0.7
2015-Jul-30 02:34N 51°57' E 001°18'8 8.2
2015-Jul-30 01:33N 51°56' E 001°31'8 7.8
2015-Jul-30 00:33N 51°52' E 001°41'3 2.7
2015-Jul-29 23:33N 51°54' E 001°42'0 0.2
2015-Jul-29 22:33N 51°54' E 001°42'0 0.0
2015-Jul-29 21:33N 51°54' E 001°42'0 0.0
2015-Jul-29 20:33N 51°54' E 001°42'0 0.0
2015-Jul-29 19:33N 51°54' E 001°42'0 0.0
2015-Jul-29 18:33N 51°54' E 001°42'0 0.0
2015-Jul-29 17:33N 51°54' E 001°42'0 0.2
2015-Jul-29 16:33N 51°54' E 001°42'0 0.1
2015-Jul-29 15:33N 51°54' E 001°42'0 0.1
2015-Jul-29 14:33N 51°54' E 001°42'0 0.0
2015-Jul-29 13:33N 51°54' E 001°42'0 0.0
2015-Jul-29 12:33N 51°54' E 001°42'0 0.1
2015-Jul-29 11:33N 51°54' E 001°42'0 0.1
2015-Jul-29 10:33N 51°54' E 001°42'0 0.0
2015-Jul-29 09:33N 51°54' E 001°42'0 0.1
2015-Jul-29 08:33N 51°54' E 001°42'0 0.0
2015-Jul-29 07:33N 51°54' E 001°42'0 0.0
2015-Jul-29 06:33N 51°54' E 001°42'0 0.1
2015-Jul-29 05:33N 51°54' E 001°42'0 0.1
2015-Jul-29 04:33N 51°54' E 001°42'0 0.1
2015-Jul-29 03:33N 51°54' E 001°42'0 0.1
2015-Jul-29 02:33N 51°54' E 001°42'0 0.0
2015-Jul-29 01:33N 51°54' E 001°42'0 0.0
2015-Jul-29 00:33N 51°54' E 001°42'0 0.0
2015-Jul-28 23:33N 51°54' E 001°42'0 0.1
2015-Jul-28 22:33N 51°54' E 001°42'3 3.5
2015-Jul-28 21:33N 51°52' E 001°46'1514.6
2015-Jul-28 20:34N 51°38' E 001°50'1514.8
2015-Jul-28 19:34N 51°25' E 002°03'1313.5
2015-Jul-28 18:33N 51°22' E 002°24'1413.6
2015-Jul-28 17:33N 51°23' E 002°45'1413.5
2015-Jul-28 16:33N 51°24' E 003°07'1615.9
2015-Jul-28 15:33N 51°25' E 003°32'6 6.5
2015-Jul-28 14:33N 51°24' E 003°43'1110.9
2015-Jul-28 13:33N 51°26' E 003°60'1110.8
2015-Jul-28 12:33N 51°21' E 004°15'4 3.2
2015-Jul-28 11:26N 51°18' E 004°15'0 0.0
2015-Jul-28 10:32N 51°18' E 004°15'0 0.0
2015-Jul-28 09:26N 51°18' E 004°16'0 0.0
2015-Jul-28 08:32N 51°18' E 004°15'0 0.0
2015-Jul-28 07:32N 51°18' E 004°15'0 0.0
2015-Jul-28 06:32N 51°18' E 004°15'0 0.0
2015-Jul-28 05:32N 51°18' E 004°15'0 0.0
2015-Jul-28 04:32N 51°18' E 004°15'0 0.0
2015-Jul-28 03:32N 51°18' E 004°15'0 0.0
2015-Jul-28 02:32N 51°18' E 004°15'0 0.0
2015-Jul-28 01:32N 51°18' E 004°15'0 0.0
2015-Jul-28 00:32N 51°18' E 004°15'0 0.0
2015-Jul-27 23:32N 51°18' E 004°15'0 0.0
2015-Jul-27 22:32N 51°18' E 004°15'0 0.0
2015-Jul-27 21:26N 51°18' E 004°15'0 0.0
2015-Jul-27 20:32N 51°18' E 004°15'0 0.0
2015-Jul-27 19:32N 51°18' E 004°15'0 0.0
2015-Jul-27 18:32N 51°18' E 004°15'0 0.0
2015-Jul-27 17:32N 51°18' E 004°16'0 0.0
2015-Jul-27 16:32N 51°18' E 004°15'0 0.0
2015-Jul-27 15:32N 51°18' E 004°15'0 0.0
2015-Jul-27 14:32N 51°18' E 004°16'0 0.0
2015-Jul-27 13:32N 51°18' E 004°15'0 0.0
2015-Jul-27 12:32N 51°18' E 004°15'0 0.0
2015-Jul-27 11:32N 51°18' E 004°15'0 0.0
2015-Jul-27 10:32N 51°18' E 004°16'0 0.0
2015-Jul-27 09:32N 51°18' E 004°15'0 0.0
2015-Jul-27 08:29N 51°18' E 004°15'0 0.0
2015-Jul-27 07:33N 51°18' E 004°16'3 2.5
2015-Jul-27 06:33N 51°20' E 004°16'8 7.8
2015-Jul-27 05:33N 51°22' E 004°04'5 5.3
2015-Jul-27 04:33N 51°22' E 003°56'1010.0
2015-Jul-27 03:34N 51°26' E 003°41'9 9.1
2015-Jul-27 02:34N 51°25' E 003°26'1212.1
2015-Jul-27 01:33N 51°24' E 003°07'1111.2
2015-Jul-27 00:33N 51°35' E 003°10'1311.3
2015-Jul-26 23:22N 51°48' E 003°16'5 6.1
2015-Jul-26 22:32N 51°52' E 003°20'2 2.2
2015-Jul-26 21:33N 51°51' E 003°18'4 3.9
2015-Jul-26 20:32N 51°54' E 003°20'2 1.5
2015-Jul-26 19:31N 51°56' E 003°21'7 7.7
2015-Jul-26 18:33N 51°49' E 003°17'4 3.6
2015-Jul-26 17:33N 51°52' E 003°18'8 8.2
2015-Jul-26 16:32N 52°00' E 003°20'1515.4
2015-Jul-26 15:33N 52°03' E 003°44'1111.1
2015-Jul-26 14:34N 51°60' E 004°02'2 2.4
2015-Jul-26 13:33N 51°57' E 004°03'0 0.0
2015-Jul-26 12:33N 51°57' E 004°03'0 0.0
2015-Jul-26 11:33N 51°57' E 004°03'0 0.0
2015-Jul-26 10:33N 51°57' E 004°03'0 0.0
2015-Jul-26 09:33N 51°57' E 004°03'0 0.0
2015-Jul-26 08:33N 51°57' E 004°03'0 0.0
2015-Jul-26 07:33N 51°57' E 004°03'0 0.0
2015-Jul-26 06:30N 51°57' E 004°03'0 0.0
2015-Jul-26 05:33N 51°58' E 004°03'0 0.0
2015-Jul-26 04:33N 51°57' E 004°03'0 0.0
2015-Jul-26 03:33N 51°57' E 004°03'0 0.0
2015-Jul-26 02:33N 51°57' E 004°03'0 0.0
2015-Jul-26 01:33N 51°57' E 004°03'0 0.0
2015-Jul-26 00:33N 51°57' E 004°03'2 1.7
2015-Jul-25 23:33N 51°59' E 004°04'1010.1
2015-Jul-25 22:34N 52°01' E 003°49'5 5.3
2015-Jul-25 21:34N 52°06' E 003°45'5 4.6
2015-Jul-25 20:33N 52°11' E 003°46'7 7.4
2015-Jul-25 19:33N 52°18' E 003°46'4 3.9
2015-Jul-25 18:33N 52°14' E 003°43'3 3.3
2015-Jul-25 17:33N 52°11' E 003°45'2 1.5
2015-Jul-25 16:33N 52°13' E 003°46'1010.0
2015-Jul-25 15:34N 52°23' E 003°49'1616.4
2015-Jul-25 14:33N 52°39' E 003°54'1616.4
2015-Jul-25 13:33N 52°55' E 003°59'1413.7
2015-Jul-25 12:33N 53°04' E 004°16'1413.8
2015-Jul-25 11:33N 53°16' E 004°29'1414.5
2015-Jul-25 10:33N 53°29' E 004°39'1514.9
2015-Jul-25 09:33N 53°35' E 005°02'1616.0
2015-Jul-25 08:33N 53°40' E 005°27'1716.8
2015-Jul-25 07:33N 53°45' E 005°54'1816.6
2015-Jul-25 06:28N 53°51' E 006°23'2116.7
2015-Jul-25 05:12N 53°56' E 006°58'1116.2
2015-Jul-25 04:33N 53°58' E 007°15'1615.7
2015-Jul-25 03:33N 54°01' E 007°42'1615.8
2015-Jul-25 02:33N 54°01' E 008°08'1413.8
2015-Jul-25 01:33N 53°58' E 008°31'1514.8
2015-Jul-25 00:34N 53°50' E 008°53'1615.9
2015-Jul-24 23:33N 53°51' E 009°20'1515.3
2015-Jul-24 22:33N 53°37' E 009°33'1312.8
2015-Jul-24 21:34N 53°33' E 009°52'2 1.8
2015-Jul-24 20:34N 53°32' E 009°55'0 0.0
2015-Jul-24 19:33N 53°32' E 009°55'0 0.0
2015-Jul-24 18:33N 53°32' E 009°55'0 0.0
2015-Jul-24 17:33N 53°32' E 009°55'0 0.0
2015-Jul-24 16:33N 53°32' E 009°55'0 0.0
2015-Jul-24 15:33N 53°32' E 009°55'0 0.0
2015-Jul-24 14:33N 53°32' E 009°55'0 0.0
2015-Jul-24 13:33N 53°32' E 009°55'0 0.0
2015-Jul-24 12:33N 53°32' E 009°55'0 0.0
2015-Jul-24 11:30N 53°32' E 009°55'0 0.0
2015-Jul-24 10:33N 53°32' E 009°55'0 0.0
2015-Jul-24 09:33N 53°32' E 009°55'0 0.0
2015-Jul-24 08:33N 53°32' E 009°55'0 0.0
2015-Jul-24 07:33N 53°32' E 009°55'0 0.0
2015-Jul-24 06:33N 53°32' E 009°55'0 0.0
2015-Jul-24 05:33N 53°32' E 009°55'0 0.0
2015-Jul-24 04:33N 53°32' E 009°55'0 0.0
2015-Jul-24 03:33N 53°32' E 009°55'0 0.0
2015-Jul-24 02:33N 53°32' E 009°55'0 0.0
2015-Jul-24 01:33N 53°32' E 009°55'0 0.0
2015-Jul-24 00:33N 53°32' E 009°55'0 0.0
2015-Jul-23 23:33N 53°32' E 009°55'0 0.0
2015-Jul-23 22:33N 53°32' E 009°55'0 0.0
2015-Jul-23 21:33N 53°32' E 009°55'1 0.6
2015-Jul-23 20:33N 53°32' E 009°54'5 5.2
2015-Jul-23 19:33N 53°34' E 009°46'1110.8
2015-Jul-23 18:33N 53°40' E 009°31'1414.0
2015-Jul-23 17:33N 53°51' E 009°18'1515.4
2015-Jul-23 16:33N 53°50' E 008°52'1716.9
2015-Jul-23 15:33N 53°59' E 008°27'2120.9
2015-Jul-23 14:34N 53°56' E 007°52'1110.8
2015-Jul-23 13:33N 53°49' E 008°07'1313.5
2015-Jul-23 12:33N 53°40' E 008°23'8 7.6
2015-Jul-23 11:33N 53°35' E 008°32'0 0.0
2015-Jul-23 10:32N 53°35' E 008°32'0 0.0
2015-Jul-23 09:32N 53°35' E 008°32'0 0.0
2015-Jul-23 08:32N 53°35' E 008°32'0 0.0
2015-Jul-23 07:32N 53°35' E 008°32'0 0.0
2015-Jul-23 06:32N 53°35' E 008°32'0 0.0
2015-Jul-23 05:32N 53°35' E 008°32'0 0.0
2015-Jul-23 04:32N 53°35' E 008°32'0 0.0
2015-Jul-23 03:32N 53°35' E 008°32'0 0.0
2015-Jul-23 02:32N 53°35' E 008°32'0 0.0
2015-Jul-23 01:32N 53°35' E 008°32'0 0.0
2015-Jul-23 00:32N 53°35' E 008°32'0 0.0
2015-Jul-22 23:32N 53°35' E 008°32'0 0.0
2015-Jul-22 22:32N 53°35' E 008°32'0 0.0
2015-Jul-22 21:32N 53°35' E 008°32'0 0.0
2015-Jul-22 20:31N 53°35' E 008°32'0 0.0
2015-Jul-22 19:32N 53°35' E 008°32'0 0.0
2015-Jul-22 18:32N 53°35' E 008°32'0 0.0
2015-Jul-22 17:31N 53°35' E 008°32'0 0.0
2015-Jul-22 16:32N 53°35' E 008°32'0 0.0
2015-Jul-22 15:32N 53°35' E 008°32'0 0.0
2015-Jul-22 14:31N 53°35' E 008°32'0 0.0
2015-Jul-22 13:31N 53°35' E 008°32'0 0.0
2015-Jul-22 12:32N 53°35' E 008°32'0 0.0
2015-Jul-22 11:32N 53°35' E 008°32'4 4.5
2015-Jul-22 10:34N 53°38' E 008°27'1312.9
2015-Jul-22 09:33N 53°46' E 008°10'1312.9
2015-Jul-22 08:33N 53°52' E 007°51'1413.9
2015-Jul-22 07:33N 53°54' E 007°27'1111.4
2015-Jul-22 06:33N 53°51' E 007°08'1515.4
2015-Jul-22 05:33N 53°49' E 006°43'1211.6
2015-Jul-22 04:33N 53°46' E 006°24'1211.7
2015-Jul-22 03:33N 53°42' E 006°05'1111.5
2015-Jul-22 02:33N 53°38' E 005°47'1413.8
2015-Jul-22 01:34N 53°33' E 005°25'1615.5
2015-Jul-22 00:34N 53°28' E 005°00'1515.1
2015-Jul-21 23:34N 53°20' E 004°39'1615.6
2015-Jul-21 22:34N 53°06' E 004°28'1615.5
2015-Jul-21 21:34N 52°52' E 004°16'1615.8
2015-Jul-21 20:33N 52°40' E 004°00'1615.9
2015-Jul-21 19:34N 52°29' E 003°41'1616.2
2015-Jul-21 18:33N 52°18' E 003°22'1716.5
2015-Jul-21 17:34N 52°05' E 003°05'1716.7
2015-Jul-21 16:33N 51°52' E 002°47'1717.1
2015-Jul-21 15:33N 51°40' E 002°28'1817.5
2015-Jul-21 14:34N 51°27' E 002°09'1717.1
2015-Jul-21 13:33N 51°14' E 001°51'1616.1
2015-Jul-21 12:33N 51°01' E 001°36'1515.1
2015-Jul-21 11:33N 50°48' E 001°25'1514.9
2015-Jul-21 10:33N 50°36' E 001°11'1615.6
2015-Jul-21 09:33N 50°28' E 000°49'  
Track history (hours):
 
Tides and Currents Weather Stations Pressure Air Temp Water Temp Dewpoint Dewpoint Depression Visibility Wind Speed Wind Dir Waves Ship Positions

MSC Flavia

Last reported at 2015-Jul-31 08:32 UTC. Time now 2015-Jul-31 09:24 UTC.
Position N 51°58' E 001°17'.

Length 366 m; draft 12.1 m.

Type: Ship (hazmat cat A). MMSI: 373004000.

Date/timePositionNaut miles runAvg speedWind from/ knotsBaromVisibWave heightAir tempDewpointWater temp
2015-Jul-31 08:32N 51°58' E 001°17'0 0.0
2015-Jul-31 07:32N 51°58' E 001°17'0 0.0
2015-Jul-31 06:32N 51°58' E 001°17'0 0.0
2015-Jul-31 05:32N 51°58' E 001°17'0 0.0
2015-Jul-31 04:32N 51°58' E 001°17'0 0.0
2015-Jul-31 03:32N 51°58' E 001°17'0 0.0
2015-Jul-31 02:32N 51°58' E 001°17'0 0.0
2015-Jul-31 01:32N 51°58' E 001°17'0 0.0
2015-Jul-31 00:32N 51°58' E 001°17'0 0.0
2015-Jul-30 23:32N 51°58' E 001°17'0 0.0
2015-Jul-30 22:32N 51°58' E 001°17'0 0.0
2015-Jul-30 21:32N 51°58' E 001°17'0 0.0
2015-Jul-30 20:32N 51°58' E 001°17'0 0.0
2015-Jul-30 19:32N 51°58' E 001°17'0 0.0
2015-Jul-30 18:32N 51°58' E 001°17'0 0.0
2015-Jul-30 17:32N 51°58' E 001°17'0 0.0
2015-Jul-30 16:32N 51°58' E 001°17'0 0.0
2015-Jul-30 15:32N 51°58' E 001°17'0 0.0
2015-Jul-30 14:32N 51°58' E 001°17'0 0.0
2015-Jul-30 13:32N 51°58' E 001°17'0 0.0
2015-Jul-30 12:32N 51°58' E 001°17'0 0.0
2015-Jul-30 11:32N 51°58' E 001°17'0 0.0
2015-Jul-30 10:32N 51°58' E 001°17'0 0.0
2015-Jul-30 09:32N 51°58' E 001°17'0 0.0
2015-Jul-30 08:32N 51°58' E 001°17'0 0.0
2015-Jul-30 07:32N 51°58' E 001°17'0 0.0
2015-Jul-30 06:32N 51°58' E 001°17'0 0.0
2015-Jul-30 05:32N 51°58' E 001°17'0 0.0
2015-Jul-30 04:32N 51°58' E 001°17'0 0.0
2015-Jul-30 03:32N 51°58' E 001°17'1 0.7
2015-Jul-30 02:34N 51°57' E 001°18'8 8.2
2015-Jul-30 01:33N 51°56' E 001°31'8 7.8
2015-Jul-30 00:33N 51°52' E 001°41'3 2.7
2015-Jul-29 23:33N 51°54' E 001°42'0 0.2
2015-Jul-29 22:33N 51°54' E 001°42'0 0.0
2015-Jul-29 21:33N 51°54' E 001°42'0 0.0
2015-Jul-29 20:33N 51°54' E 001°42'0 0.0
2015-Jul-29 19:33N 51°54' E 001°42'0 0.0
2015-Jul-29 18:33N 51°54' E 001°42'0 0.0
2015-Jul-29 17:33N 51°54' E 001°42'0 0.2
2015-Jul-29 16:33N 51°54' E 001°42'0 0.1
2015-Jul-29 15:33N 51°54' E 001°42'0 0.1
2015-Jul-29 14:33N 51°54' E 001°42'0 0.0
2015-Jul-29 13:33N 51°54' E 001°42'0 0.0
2015-Jul-29 12:33N 51°54' E 001°42'0 0.1
2015-Jul-29 11:33N 51°54' E 001°42'0 0.1
2015-Jul-29 10:33N 51°54' E 001°42'0 0.0
2015-Jul-29 09:33N 51°54' E 001°42'0 0.1
2015-Jul-29 08:33N 51°54' E 001°42'0 0.0
2015-Jul-29 07:33N 51°54' E 001°42'0 0.0
2015-Jul-29 06:33N 51°54' E 001°42'0 0.1
2015-Jul-29 05:33N 51°54' E 001°42'0 0.1
2015-Jul-29 04:33N 51°54' E 001°42'0 0.1
2015-Jul-29 03:33N 51°54' E 001°42'0 0.1
2015-Jul-29 02:33N 51°54' E 001°42'0 0.0
2015-Jul-29 01:33N 51°54' E 001°42'0 0.0
2015-Jul-29 00:33N 51°54' E 001°42'0 0.0
2015-Jul-28 23:33N 51°54' E 001°42'0 0.1
2015-Jul-28 22:33N 51°54' E 001°42'3 3.5
2015-Jul-28 21:33N 51°52' E 001°46'1514.6
2015-Jul-28 20:34N 51°38' E 001°50'1514.8
2015-Jul-28 19:34N 51°25' E 002°03'1313.5
2015-Jul-28 18:33N 51°22' E 002°24'1413.6
2015-Jul-28 17:33N 51°23' E 002°45'1413.5
2015-Jul-28 16:33N 51°24' E 003°07'1615.9
2015-Jul-28 15:33N 51°25' E 003°32'6 6.5
2015-Jul-28 14:33N 51°24' E 003°43'1110.9
2015-Jul-28 13:33N 51°26' E 003°60'1110.8
2015-Jul-28 12:33N 51°21' E 004°15'4 3.2
2015-Jul-28 11:26N 51°18' E 004°15'0 0.0
2015-Jul-28 10:32N 51°18' E 004°15'0 0.0
2015-Jul-28 09:26N 51°18' E 004°16'0 0.0
2015-Jul-28 08:32N 51°18' E 004°15'0 0.0
2015-Jul-28 07:32N 51°18' E 004°15'0 0.0
2015-Jul-28 06:32N 51°18' E 004°15'0 0.0
2015-Jul-28 05:32N 51°18' E 004°15'0 0.0
2015-Jul-28 04:32N 51°18' E 004°15'0 0.0
2015-Jul-28 03:32N 51°18' E 004°15'0 0.0
2015-Jul-28 02:32N 51°18' E 004°15'0 0.0
2015-Jul-28 01:32N 51°18' E 004°15'0 0.0
2015-Jul-28 00:32N 51°18' E 004°15'0 0.0
2015-Jul-27 23:32N 51°18' E 004°15'0 0.0
2015-Jul-27 22:32N 51°18' E 004°15'0 0.0
2015-Jul-27 21:26N 51°18' E 004°15'0 0.0
2015-Jul-27 20:32N 51°18' E 004°15'0 0.0
2015-Jul-27 19:32N 51°18' E 004°15'0 0.0
2015-Jul-27 18:32N 51°18' E 004°15'0 0.0
2015-Jul-27 17:32N 51°18' E 004°16'0 0.0
2015-Jul-27 16:32N 51°18' E 004°15'0 0.0
2015-Jul-27 15:32N 51°18' E 004°15'0 0.0
2015-Jul-27 14:32N 51°18' E 004°16'0 0.0
2015-Jul-27 13:32N 51°18' E 004°15'0 0.0
2015-Jul-27 12:32N 51°18' E 004°15'0 0.0
2015-Jul-27 11:32N 51°18' E 004°15'0 0.0
2015-Jul-27 10:32N 51°18' E 004°16'0 0.0
2015-Jul-27 09:32N 51°18' E 004°15'0 0.0
2015-Jul-27 08:29N 51°18' E 004°15'0 0.0
2015-Jul-27 07:33N 51°18' E 004°16'3 2.5
2015-Jul-27 06:33N 51°20' E 004°16'8 7.8
2015-Jul-27 05:33N 51°22' E 004°04'5 5.3
2015-Jul-27 04:33N 51°22' E 003°56'1010.0
2015-Jul-27 03:34N 51°26' E 003°41'9 9.1
2015-Jul-27 02:34N 51°25' E 003°26'1212.1
2015-Jul-27 01:33N 51°24' E 003°07'1111.2
2015-Jul-27 00:33N 51°35' E 003°10'1311.3
2015-Jul-26 23:22N 51°48' E 003°16'5 6.1
2015-Jul-26 22:32N 51°52' E 003°20'2 2.2
2015-Jul-26 21:33N 51°51' E 003°18'4 3.9
2015-Jul-26 20:32N 51°54' E 003°20'2 1.5
2015-Jul-26 19:31N 51°56' E 003°21'7 7.7
2015-Jul-26 18:33N 51°49' E 003°17'4 3.6
2015-Jul-26 17:33N 51°52' E 003°18'8 8.2
2015-Jul-26 16:32N 52°00' E 003°20'1515.4
2015-Jul-26 15:33N 52°03' E 003°44'1111.1
2015-Jul-26 14:34N 51°60' E 004°02'2 2.4
2015-Jul-26 13:33N 51°57' E 004°03'0 0.0
2015-Jul-26 12:33N 51°57' E 004°03'0 0.0
2015-Jul-26 11:33N 51°57' E 004°03'0 0.0
2015-Jul-26 10:33N 51°57' E 004°03'0 0.0
2015-Jul-26 09:33N 51°57' E 004°03'0 0.0
2015-Jul-26 08:33N 51°57' E 004°03'0 0.0
2015-Jul-26 07:33N 51°57' E 004°03'0 0.0
2015-Jul-26 06:30N 51°57' E 004°03'0 0.0
2015-Jul-26 05:33N 51°58' E 004°03'0 0.0
2015-Jul-26 04:33N 51°57' E 004°03'0 0.0
2015-Jul-26 03:33N 51°57' E 004°03'0 0.0
2015-Jul-26 02:33N 51°57' E 004°03'0 0.0
2015-Jul-26 01:33N 51°57' E 004°03'0 0.0
2015-Jul-26 00:33N 51°57' E 004°03'2 1.7
2015-Jul-25 23:33N 51°59' E 004°04'1010.1
2015-Jul-25 22:34N 52°01' E 003°49'5 5.3
2015-Jul-25 21:34N 52°06' E 003°45'5 4.6
2015-Jul-25 20:33N 52°11' E 003°46'7 7.4
2015-Jul-25 19:33N 52°18' E 003°46'4 3.9
2015-Jul-25 18:33N 52°14' E 003°43'3 3.3
2015-Jul-25 17:33N 52°11' E 003°45'2 1.5
2015-Jul-25 16:33N 52°13' E 003°46'1010.0
2015-Jul-25 15:34N 52°23' E 003°49'1616.4
2015-Jul-25 14:33N 52°39' E 003°54'1616.4
2015-Jul-25 13:33N 52°55' E 003°59'1413.7
2015-Jul-25 12:33N 53°04' E 004°16'1413.8
2015-Jul-25 11:33N 53°16' E 004°29'1414.5
2015-Jul-25 10:33N 53°29' E 004°39'1514.9
2015-Jul-25 09:33N 53°35' E 005°02'1616.0
2015-Jul-25 08:33N 53°40' E 005°27'1716.8
2015-Jul-25 07:33N 53°45' E 005°54'1816.6
2015-Jul-25 06:28N 53°51' E 006°23'2116.7
2015-Jul-25 05:12N 53°56' E 006°58'1116.2
2015-Jul-25 04:33N 53°58' E 007°15'1615.7
2015-Jul-25 03:33N 54°01' E 007°42'1615.8
2015-Jul-25 02:33N 54°01' E 008°08'1413.8
2015-Jul-25 01:33N 53°58' E 008°31'1514.8
2015-Jul-25 00:34N 53°50' E 008°53'1615.9
2015-Jul-24 23:33N 53°51' E 009°20'1515.3
2015-Jul-24 22:33N 53°37' E 009°33'1312.8
2015-Jul-24 21:34N 53°33' E 009°52'2 1.8
2015-Jul-24 20:34N 53°32' E 009°55'0 0.0
2015-Jul-24 19:33N 53°32' E 009°55'0 0.0
2015-Jul-24 18:33N 53°32' E 009°55'0 0.0
2015-Jul-24 17:33N 53°32' E 009°55'0 0.0
2015-Jul-24 16:33N 53°32' E 009°55'0 0.0
2015-Jul-24 15:33N 53°32' E 009°55'0 0.0
2015-Jul-24 14:33N 53°32' E 009°55'0 0.0
2015-Jul-24 13:33N 53°32' E 009°55'0 0.0
2015-Jul-24 12:33N 53°32' E 009°55'0 0.0
2015-Jul-24 11:30N 53°32' E 009°55'0 0.0
2015-Jul-24 10:33N 53°32' E 009°55'0 0.0
2015-Jul-24 09:33N 53°32' E 009°55'0 0.0
2015-Jul-24 08:33N 53°32' E 009°55'0 0.0
2015-Jul-24 07:33N 53°32' E 009°55'0 0.0
2015-Jul-24 06:33N 53°32' E 009°55'0 0.0
2015-Jul-24 05:33N 53°32' E 009°55'0 0.0
2015-Jul-24 04:33N 53°32' E 009°55'0 0.0
2015-Jul-24 03:33N 53°32' E 009°55'0 0.0
2015-Jul-24 02:33N 53°32' E 009°55'0 0.0
2015-Jul-24 01:33N 53°32' E 009°55'0 0.0
2015-Jul-24 00:33N 53°32' E 009°55'0 0.0
2015-Jul-23 23:33N 53°32' E 009°55'0 0.0
2015-Jul-23 22:33N 53°32' E 009°55'0 0.0
2015-Jul-23 21:33N 53°32' E 009°55'1 0.6
2015-Jul-23 20:33N 53°32' E 009°54'5 5.2
2015-Jul-23 19:33N 53°34' E 009°46'1110.8
2015-Jul-23 18:33N 53°40' E 009°31'1414.0
2015-Jul-23 17:33N 53°51' E 009°18'1515.4
2015-Jul-23 16:33N 53°50' E 008°52'1716.9
2015-Jul-23 15:33N 53°59' E 008°27'2120.9
2015-Jul-23 14:34N 53°56' E 007°52'1110.8
2015-Jul-23 13:33N 53°49' E 008°07'1313.5
2015-Jul-23 12:33N 53°40' E 008°23'8 7.6
2015-Jul-23 11:33N 53°35' E 008°32'0 0.0
2015-Jul-23 10:32N 53°35' E 008°32'0 0.0
2015-Jul-23 09:32N 53°35' E 008°32'0 0.0
2015-Jul-23 08:32N 53°35' E 008°32'0 0.0
2015-Jul-23 07:32N 53°35' E 008°32'0 0.0
2015-Jul-23 06:32N 53°35' E 008°32'0 0.0
2015-Jul-23 05:32N 53°35' E 008°32'0 0.0
2015-Jul-23 04:32N 53°35' E 008°32'0 0.0
2015-Jul-23 03:32N 53°35' E 008°32'0 0.0
2015-Jul-23 02:32N 53°35' E 008°32'0 0.0
2015-Jul-23 01:32N 53°35' E 008°32'0 0.0
2015-Jul-23 00:32N 53°35' E 008°32'0 0.0
2015-Jul-22 23:32N 53°35' E 008°32'0 0.0
2015-Jul-22 22:32N 53°35' E 008°32'0 0.0
2015-Jul-22 21:32N 53°35' E 008°32'0 0.0
2015-Jul-22 20:31N 53°35' E 008°32'0 0.0
2015-Jul-22 19:32N 53°35' E 008°32'0 0.0
2015-Jul-22 18:32N 53°35' E 008°32'0 0.0
2015-Jul-22 17:31N 53°35' E 008°32'0 0.0
2015-Jul-22 16:32N 53°35' E 008°32'0 0.0
2015-Jul-22 15:32N 53°35' E 008°32'0 0.0
2015-Jul-22 14:31N 53°35' E 008°32'0 0.0
2015-Jul-22 13:31N 53°35' E 008°32'0 0.0
2015-Jul-22 12:32N 53°35' E 008°32'0 0.0
2015-Jul-22 11:32N 53°35' E 008°32'4 4.5
2015-Jul-22 10:34N 53°38' E 008°27'1312.9
2015-Jul-22 09:33N 53°46' E 008°10'1312.9
2015-Jul-22 08:33N 53°52' E 007°51'1413.9
2015-Jul-22 07:33N 53°54' E 007°27'1111.4
2015-Jul-22 06:33N 53°51' E 007°08'1515.4
2015-Jul-22 05:33N 53°49' E 006°43'1211.6
2015-Jul-22 04:33N 53°46' E 006°24'1211.7
2015-Jul-22 03:33N 53°42' E 006°05'1111.5
2015-Jul-22 02:33N 53°38' E 005°47'1413.8
2015-Jul-22 01:34N 53°33' E 005°25'1615.5
2015-Jul-22 00:34N 53°28' E 005°00'1515.1
2015-Jul-21 23:34N 53°20' E 004°39'1615.6
2015-Jul-21 22:34N 53°06' E 004°28'1615.5
2015-Jul-21 21:34N 52°52' E 004°16'1615.8
2015-Jul-21 20:33N 52°40' E 004°00'1615.9
2015-Jul-21 19:34N 52°29' E 003°41'1616.2
2015-Jul-21 18:33N 52°18' E 003°22'1716.5
2015-Jul-21 17:34N 52°05' E 003°05'1716.7
2015-Jul-21 16:33N 51°52' E 002°47'1717.1
2015-Jul-21 15:33N 51°40' E 002°28'1817.5
2015-Jul-21 14:34N 51°27' E 002°09'1717.1
2015-Jul-21 13:33N 51°14' E 001°51'1616.1
2015-Jul-21 12:33N 51°01' E 001°36'1515.1
2015-Jul-21 11:33N 50°48' E 001°25'1514.9
2015-Jul-21 10:33N 50°36' E 001°11'1615.6
2015-Jul-21 09:33N 50°28' E 000°49'  

Dump ship's entire track history